Time;durP1;ratioP1;P1;durP2;ratioP2;P2;SDS_P1;SDS_P2;PMS_P1;PMS_P2;Temp;Humidity;BMP_temperature;BMP_pressure;BME280_temperature;BME280_humidity;BME280_pressure;Samples;Min_cycle;Max_cycle;Signal;HPM_P1;HPM_P2
2023/08/21 00:01:59;;;;;;;7.63;3.10;;;;;;;13.71;79.27;101453.50;10444544;28;20046;-70
2023/08/21 00:07:01;;;;;;;4.03;2.80;;;;;;;13.57;80.43;101446.94;10447810;28;20045;-71
2023/08/21 00:12:04;;;;;;;4.60;2.17;;;;;;;13.53;80.63;101448.59;10443649;28;20044;-70
2023/08/21 00:17:06;;;;;;;4.47;2.47;;;;;;;13.43;80.73;101440.38;10442807;28;20053;-71
2023/08/21 00:22:08;;;;;;;5.28;2.85;;;;;;;13.41;81.46;101435.13;10446336;28;20048;-70
2023/08/21 00:27:10;;;;;;;5.45;3.03;;;;;;;13.36;81.90;101440.66;10429382;28;20038;-71
2023/08/21 00:32:13;;;;;;;4.63;3.10;;;;;;;13.39;81.37;101434.59;10420822;28;20056;-71
2023/08/21 00:37:15;;;;;;;7.05;2.95;;;;;;;13.35;81.86;101438.16;10441327;28;20057;-71
2023/08/21 00:42:17;;;;;;;3.83;2.60;;;;;;;13.68;81.14;101431.16;10432509;28;20038;-71
2023/08/21 00:47:19;;;;;;;4.82;2.85;;;;;;;13.67;80.50;101432.28;10440009;28;20044;-71
2023/08/21 00:52:21;;;;;;;7.82;2.83;;;;;;;13.63;80.80;101433.94;10437912;28;20049;-71
2023/08/21 00:57:24;;;;;;;4.50;2.80;;;;;;;13.66;80.41;101438.91;10443298;28;20076;-71
2023/08/21 01:02:26;;;;;;;4.65;2.67;;;;;;;13.49;81.33;101431.78;10475577;28;20049;-71
2023/08/21 01:07:28;;;;;;;5.90;2.70;;;;;;;13.52;81.66;101428.47;10444715;28;20045;-70
2023/08/21 01:12:38;;;;;;;4.50;2.60;;;;;;;13.44;81.21;101436.50;10439105;28;20049;-72
2023/08/21 01:17:42;;;;;;;3.85;2.17;;;;;;;13.27;82.21;101431.31;10427488;28;20045;-71
2023/08/21 01:22:47;;;;;;;4.40;2.63;;;;;;;13.22;82.49;101429.41;10438730;28;20045;-71
2023/08/21 01:27:49;;;;;;;5.47;2.53;;;;;;;13.15;83.28;101419.72;10442070;28;20041;-71
2023/08/21 01:33:00;;;;;;;6.78;2.60;;;;;;;13.24;82.74;101421.69;10439129;28;20515;-72
2023/08/21 01:38:03;;;;;;;6.75;3.00;;;;;;;13.20;83.48;101417.00;10440535;28;20033;-71
2023/08/21 01:43:06;;;;;;;5.55;2.80;;;;;;;13.20;83.09;101419.78;10440934;28;20057;-71
2023/08/21 01:48:08;;;;;;;7.60;3.17;;;;;;;13.11;83.92;101405.69;10439377;28;20044;-71
2023/08/21 01:53:11;;;;;;;4.63;3.28;;;;;;;13.06;84.47;101407.63;10407153;28;20048;-71
2023/08/21 01:58:14;;;;;;;8.57;2.88;;;;;;;13.04;84.18;101410.69;10439987;28;20511;-71
2023/08/21 02:03:16;;;;;;;5.40;2.38;;;;;;;13.15;84.04;101416.97;10437653;28;20049;-71
2023/08/21 02:08:18;;;;;;;8.27;3.08;;;;;;;13.06;84.62;101413.16;10442403;28;20049;-71
2023/08/21 02:13:20;;;;;;;6.03;3.00;;;;;;;13.00;85.41;101412.31;10437812;28;20037;-71
2023/08/21 02:18:23;;;;;;;9.15;3.13;;;;;;;12.98;84.62;101407.09;10433004;28;20054;-71
2023/08/21 02:23:25;;;;;;;6.63;3.08;;;;;;;12.83;85.45;101398.84;10450932;28;20530;-71
2023/08/21 02:28:27;;;;;;;6.05;2.63;;;;;;;12.84;86.04;101405.19;10448143;28;20033;-71
2023/08/21 02:33:29;;;;;;;6.18;3.00;;;;;;;12.93;86.10;101401.59;10445236;28;20052;-71
2023/08/21 02:38:32;;;;;;;6.25;3.20;;;;;;;13.11;85.20;101407.63;10448803;28;20096;-71
2023/08/21 02:43:34;;;;;;;3.65;2.50;;;;;;;13.24;84.54;101394.13;10448637;28;20049;-71
2023/08/21 02:48:36;;;;;;;8.07;3.42;;;;;;;13.11;84.01;101391.91;10448044;28;20049;-71
2023/08/21 02:53:38;;;;;;;4.53;2.97;;;;;;;13.20;84.66;101387.53;10449111;28;20041;-71
2023/08/21 02:58:41;;;;;;;6.80;3.17;;;;;;;13.43;84.63;101380.53;10437088;28;20060;-71
2023/08/21 03:03:43;;;;;;;8.90;3.65;;;;;;;13.65;82.09;101376.56;10445242;28;20069;-71
2023/08/21 03:08:45;;;;;;;7.03;3.03;;;;;;;13.37;83.67;101383.59;10445996;28;20056;-71
2023/08/21 03:13:47;;;;;;;6.35;3.22;;;;;;;13.95;83.42;101373.66;10447914;28;20049;-70
2023/08/21 03:18:58;;;;;;;6.70;3.17;;;;;;;15.09;78.40;101367.69;10437052;28;20065;-71
2023/08/21 03:24:02;;;;;;;7.60;2.75;;;;;;;16.15;74.25;101367.44;10424255;28;20045;-71
2023/08/21 03:29:04;;;;;;;4.90;2.92;;;;;;;16.73;70.56;101361.47;10408871;28;20058;-71
2023/08/21 03:34:07;;;;;;;6.82;2.85;;;;;;;16.91;69.96;101355.03;10459167;28;20037;-71
2023/08/21 03:39:09;;;;;;;4.30;3.05;;;;;;;17.06;68.78;101343.66;10445963;28;20049;-71
2023/08/21 03:44:17;;;;;;;5.30;2.63;;;;;;;17.61;67.63;101343.63;10446062;28;20049;-71
2023/08/21 03:49:19;;;;;;;6.78;3.58;;;;;;;17.91;65.67;101353.25;10445026;28;20282;-71
2023/08/21 03:54:22;;;;;;;7.00;3.40;;;;;;;18.44;65.08;101343.34;10447296;28;20495;-71
2023/08/21 03:59:27;;;;;;;5.50;3.13;;;;;;;18.04;64.99;101338.47;10443506;28;20041;-71
2023/08/21 04:04:29;;;;;;;5.45;3.05;;;;;;;18.65;63.20;101336.16;10443758;28;20053;-70
2023/08/21 04:09:31;;;;;;;5.68;3.20;;;;;;;18.63;62.95;101339.25;10445052;28;20034;-71
2023/08/21 04:14:33;;;;;;;7.05;3.67;;;;;;;18.60;62.66;101336.25;10440368;28;20076;-71
2023/08/21 04:19:35;;;;;;;6.28;3.60;;;;;;;19.29;60.94;101331.03;10442203;28;20439;-70
2023/08/21 04:24:38;;;;;;;7.68;4.18;;;;;;;19.01;61.20;101337.97;10421811;28;20057;-70
2023/08/21 04:29:40;;;;;;;9.82;4.00;;;;;;;19.41;59.89;101328.44;10417395;28;20049;-69
2023/08/21 04:34:43;;;;;;;8.93;3.85;;;;;;;19.40;60.03;101323.19;10471855;28;20040;-71
2023/08/21 04:39:46;;;;;;;6.75;3.78;;;;;;;19.57;60.60;101320.47;10464049;28;20045;-70
2023/08/21 04:44:48;;;;;;;7.45;3.60;;;;;;;20.11;58.08;101321.78;10468072;28;20041;-69
2023/08/21 04:49:53;;;;;;;6.25;3.80;;;;;;;19.92;58.57;101323.28;10443133;28;20089;-69
2023/08/21 04:54:55;;;;;;;6.07;3.63;;;;;;;20.45;57.88;101320.97;10443800;28;20049;-69
2023/08/21 04:59:58;;;;;;;7.05;3.80;;;;;;;20.38;57.72;101312.25;10439730;28;20050;-69
2023/08/21 05:05:08;;;;;;;5.22;3.75;;;;;;;20.83;55.94;101322.19;10452870;28;20068;-71
2023/08/21 05:10:10;;;;;;;4.03;3.17;;;;;;;21.15;54.77;101310.38;10442769;28;20496;-69
2023/08/21 05:15:14;;;;;;;5.78;3.67;;;;;;;21.17;54.18;101315.59;10444543;28;20053;-69
2023/08/21 05:20:17;;;;;;;7.32;4.15;;;;;;;21.29;55.10;101319.34;10441298;28;20188;-69
2023/08/21 05:25:20;;;;;;;5.75;3.70;;;;;;;21.94;52.45;101312.34;10427705;28;20065;-70
2023/08/21 05:30:23;;;;;;;4.40;3.53;;;;;;;22.30;51.86;101318.44;10441572;28;20053;-70
2023/08/21 05:35:25;;;;;;;4.93;3.15;;;;;;;21.69;53.48;101316.13;10437741;28;20049;-69
2023/08/21 05:40:28;;;;;;;4.82;2.63;;;;;;;22.82;50.80;101311.16;10434446;28;20144;-69
2023/08/21 05:45:31;;;;;;;4.75;2.85;;;;;;;22.90;51.00;101305.78;10440386;28;20049;-70
2023/08/21 05:50:36;;;;;;;4.13;2.65;;;;;;;23.66;48.52;101317.09;10442153;28;20484;-70
2023/08/21 05:55:39;;;;;;;4.50;2.63;;;;;;;23.40;48.18;101306.25;10442113;28;20037;-70
2023/08/21 06:00:44;;;;;;;3.88;2.63;;;;;;;23.70;48.72;101304.00;10440095;28;20053;-70
2023/08/21 06:05:47;;;;;;;5.53;3.50;;;;;;;23.96;47.60;101294.38;10442412;28;20041;-70
2023/08/21 06:10:53;;;;;;;4.22;3.08;;;;;;;23.86;48.26;101286.47;10442228;28;20415;-70
2023/08/21 06:15:55;;;;;;;4.90;3.33;;;;;;;24.34;46.84;101286.28;10428259;28;20048;-70
2023/08/21 06:20:59;;;;;;;4.35;2.90;;;;;;;24.37;46.75;101281.13;10434253;28;20519;-70
2023/08/21 06:26:01;;;;;;;5.03;3.20;;;;;;;24.60;46.56;101268.09;10441457;28;20053;-71
2023/08/21 06:31:07;;;;;;;4.45;3.22;;;;;;;24.55;47.36;101272.00;10441117;28;20045;-71
2023/08/21 06:36:09;;;;;;;4.72;3.88;;;;;;;24.58;46.68;101271.28;10441805;28;20041;-71
2023/08/21 06:41:13;;;;;;;7.18;3.20;;;;;;;25.21;45.97;101265.66;10441813;28;20048;-71
2023/08/21 06:46:15;;;;;;;10.02;3.30;;;;;;;25.55;44.90;101269.66;10439570;28;20045;-71
2023/08/21 06:51:17;;;;;;;6.55;3.25;;;;;;;25.26;44.96;101256.13;10441335;28;20507;-71
2023/08/21 06:56:20;;;;;;;6.80;4.00;;;;;;;25.84;43.66;101259.03;10442102;28;20527;-72
2023/08/21 07:01:22;;;;;;;3.58;3.00;;;;;;;25.99;42.89;101255.31;10443851;28;20046;-71
2023/08/21 07:06:24;;;;;;;3.90;2.25;;;;;;;25.12;44.12;101252.97;10444110;28;20041;-71
2023/08/21 07:11:27;;;;;;;4.85;2.45;;;;;;;25.43;43.96;101244.47;10444972;28;20037;-70
2023/08/21 07:16:29;;;;;;;4.15;2.20;;;;;;;25.28;42.57;101247.34;10446137;28;20048;-70
2023/08/21 07:21:34;;;;;;;2.67;2.03;;;;;;;25.68;42.91;101249.84;10470929;28;20049;-70
2023/08/21 07:26:36;;;;;;;4.10;2.40;;;;;;;26.47;40.89;101241.81;10457679;28;20048;-71
2023/08/21 07:31:38;;;;;;;3.83;1.73;;;;;;;25.20;43.51;101235.94;10449891;28;20045;-71
2023/08/21 07:36:40;;;;;;;2.35;1.83;;;;;;;24.76;43.83;101240.84;10485558;28;20534;-71
2023/08/21 07:41:42;;;;;;;1.98;1.63;;;;;;;24.70;44.40;101247.13;10433612;28;20041;-71
2023/08/21 07:46:45;;;;;;;2.92;2.20;;;;;;;25.58;43.37;101233.56;10407782;28;20042;-71
2023/08/21 07:51:47;;;;;;;2.22;1.90;;;;;;;26.08;41.75;101230.59;10407818;28;20050;-71
2023/08/21 07:56:50;;;;;;;4.28;1.45;;;;;;;24.21;44.60;101231.38;10408219;28;20058;-71
2023/08/21 08:01:52;;;;;;;3.13;1.85;;;;;;;24.77;43.03;101228.44;10447669;28;20041;-71
2023/08/21 08:06:55;;;;;;;1.88;1.40;;;;;;;24.01;44.41;101221.22;10414187;28;20046;-71
2023/08/21 08:11:57;;;;;;;4.55;2.25;;;;;;;24.55;42.94;101221.50;10409849;28;20542;-71
2023/08/21 08:16:59;;;;;;;2.63;1.67;;;;;;;24.56;42.16;101214.69;10428305;28;20432;-71
2023/08/21 08:22:02;;;;;;;1.88;1.67;;;;;;;26.36;40.77;101205.00;10439704;28;20042;-73
2023/08/21 08:27:04;;;;;;;3.10;1.92;;;;;;;25.15;41.43;101207.31;10437723;28;20045;-73
2023/08/21 08:32:06;;;;;;;3.80;1.75;;;;;;;24.74;42.94;101201.13;10445848;28;20053;-73
2023/08/21 08:37:09;;;;;;;4.18;1.83;;;;;;;22.69;46.37;101196.72;10454711;28;20068;-72
2023/08/21 08:42:11;;;;;;;2.20;1.90;;;;;;;23.72;45.16;101200.78;10446402;28;20045;-72
2023/08/21 08:47:14;;;;;;;2.35;1.83;;;;;;;24.79;42.77;101192.41;10439168;28;20420;-71
2023/08/21 08:52:18;;;;;;;2.80;2.20;;;;;;;26.23;39.53;101192.31;10412979;28;20037;-70
2023/08/21 08:57:20;;;;;;;5.47;2.65;;;;;;;25.35;40.91;101174.47;10464271;28;20424;-70
2023/08/21 09:02:25;;;;;;;2.33;1.92;;;;;;;25.71;40.21;101168.44;10445263;28;20431;-70
2023/08/21 09:07:28;;;;;;;5.47;2.55;;;;;;;26.96;37.92;101162.97;10445297;28;20124;-71
2023/08/21 09:12:33;;;;;;;5.20;3.28;;;;;;;25.30;40.17;101160.69;10445020;28;20053;-70
2023/08/21 09:17:35;;;;;;;3.53;2.17;;;;;;;26.42;37.64;101154.88;10445739;28;20056;-70
2023/08/21 09:22:37;;;;;;;4.35;2.60;;;;;;;26.56;38.07;101152.31;10444354;28;20037;-71
2023/08/21 09:27:40;;;;;;;6.55;3.20;;;;;;;24.33;40.82;101150.00;10438337;28;20045;-72
2023/08/21 09:33:00;;;;;;;6.22;2.55;;;;;;;23.22;44.00;101141.66;10438386;28;20033;-72
2023/08/21 09:38:02;;;;;;;4.50;2.60;;;;;;;21.90;44.73;101143.72;10429358;28;20037;-71
2023/08/21 09:43:05;;;;;;;3.17;2.40;;;;;;;21.42;47.87;101137.97;10426730;28;20520;-72
2023/08/21 09:48:07;;;;;;;3.08;2.10;;;;;;;21.44;47.50;101130.06;10414569;28;20041;-72
2023/08/21 09:53:11;;;;;;;3.00;2.05;;;;;;;21.26;48.45;101121.84;10426574;28;20041;-71
2023/08/21 09:58:31;;;;;;;3.42;2.00;;;;;;;21.60;46.87;101119.88;10432932;28;20052;-71
2023/08/21 10:03:34;;;;;;;2.45;1.85;;;;;;;21.05;47.13;101110.66;10435187;28;20037;-72
2023/08/21 10:08:40;;;;;;;4.20;2.20;;;;;;;21.55;47.15;101117.31;10441939;28;20522;-71
2023/08/21 10:13:42;;;;;;;2.30;1.73;;;;;;;21.57;46.70;101103.81;10451596;28;20052;-72
2023/08/21 10:18:45;;;;;;;3.22;2.20;;;;;;;21.36;47.25;101096.31;10483895;28;20052;-73
2023/08/21 10:23:49;;;;;;;2.85;1.75;;;;;;;21.67;45.93;101090.22;10458340;28;20053;-72
2023/08/21 10:28:52;;;;;;;3.05;2.13;;;;;;;21.80;44.92;101082.69;10436787;28;20495;-72
2023/08/21 10:33:54;;;;;;;4.28;2.10;;;;;;;21.92;45.51;101077.13;10434277;28;20049;-71
2023/08/21 10:39:00;;;;;;;6.40;2.22;;;;;;;22.20;45.72;101068.09;10440920;28;20034;-71
2023/08/21 10:44:02;;;;;;;4.53;2.20;;;;;;;22.39;45.20;101073.09;10442162;28;20046;-72
2023/08/21 10:49:05;;;;;;;3.03;2.00;;;;;;;22.31;45.31;101069.25;10450328;28;20386;-71
2023/08/21 10:54:13;;;;;;;4.60;2.70;;;;;;;21.90;45.36;101059.09;10447699;28;20042;-71
2023/08/21 10:59:15;;;;;;;3.10;2.00;;;;;;;21.47;46.76;101049.22;10443685;28;20061;-71
2023/08/21 11:04:17;;;;;;;3.28;2.25;;;;;;;21.79;45.89;101047.53;10443262;28;20044;-72
2023/08/21 11:09:20;;;;;;;3.38;2.15;;;;;;;21.83;45.38;101044.84;10443107;28;20535;-72
2023/08/21 11:14:26;;;;;;;3.58;2.30;;;;;;;21.76;44.76;101041.84;10448400;28;20040;-71
2023/08/21 11:19:31;;;;;;;2.60;2.00;;;;;;;21.76;45.73;101037.06;10445353;28;20060;-71
2023/08/21 11:24:45;;;;;;;3.30;2.20;;;;;;;22.03;43.75;101037.53;10444929;28;20076;-71
2023/08/21 11:29:49;;;;;;;3.00;2.03;;;;;;;22.30;42.75;101027.69;10447596;28;20049;-74
2023/08/21 11:34:52;;;;;;;3.05;2.05;;;;;;;22.29;42.85;101018.47;10446706;28;20049;-72
2023/08/21 11:39:57;;;;;;;2.35;2.10;;;;;;;22.32;42.37;101008.56;10445476;28;20057;-73
2023/08/21 11:45:00;;;;;;;2.20;1.70;;;;;;;22.25;42.04;101017.56;10439165;28;20037;-73
2023/08/21 11:50:05;;;;;;;2.83;1.70;;;;;;;22.38;42.26;101007.97;10441949;28;20048;-72
2023/08/21 11:55:09;;;;;;;3.25;2.08;;;;;;;22.14;42.48;101000.44;10447453;28;20045;-72
2023/08/21 12:00:12;;;;;;;3.22;1.77;;;;;;;22.13;41.69;101000.78;10444260;28;20415;-72
2023/08/21 12:05:16;;;;;;;2.70;2.17;;;;;;;22.10;43.81;100995.91;10448289;28;20056;-71
2023/08/21 12:10:28;;;;;;;2.78;1.95;;;;;;;22.45;43.14;100982.22;10444058;28;20401;-71
2023/08/21 12:15:30;;;;;;;2.92;2.08;;;;;;;22.78;43.47;100979.19;10446150;28;20045;-71
2023/08/21 12:20:33;;;;;;;3.28;2.13;;;;;;;22.50;42.46;100971.59;10443999;28;20065;-71
2023/08/21 12:25:36;;;;;;;3.88;2.10;;;;;;;22.35;43.51;100969.53;10446214;28;20038;-71
2023/08/21 12:30:38;;;;;;;4.80;2.63;;;;;;;22.22;43.74;100965.16;10439314;28;20037;-71
2023/08/21 12:35:40;;;;;;;2.58;2.05;;;;;;;21.92;43.55;100958.97;10440410;28;20076;-71
2023/08/21 12:40:42;;;;;;;2.78;2.00;;;;;;;21.94;43.76;100949.06;10437626;28;20045;-71
2023/08/21 12:45:45;;;;;;;2.88;2.45;;;;;;;22.20;43.57;100945.09;10444921;28;20049;-71
2023/08/21 12:50:47;;;;;;;3.42;2.20;;;;;;;22.29;43.79;100945.78;10431036;28;20415;-73
2023/08/21 12:55:49;;;;;;;5.50;2.08;;;;;;;22.55;43.45;100937.75;10443381;28;20041;-73
2023/08/21 13:00:51;;;;;;;3.35;2.28;;;;;;;22.56;43.53;100928.25;10470203;28;20054;-72
2023/08/21 13:05:53;;;;;;;2.95;2.30;;;;;;;22.40;44.33;100921.75;10440808;28;20088;-72
2023/08/21 13:10:57;;;;;;;3.00;2.30;;;;;;;22.68;43.74;100921.75;10475807;28;20049;-72
2023/08/21 13:16:00;;;;;;;4.28;1.95;;;;;;;22.85;43.14;100920.66;10485641;28;20048;-72
2023/08/21 13:21:02;;;;;;;2.58;2.17;;;;;;;22.67;42.13;100916.53;10458292;28;20037;-71
2023/08/21 13:26:04;;;;;;;3.65;2.15;;;;;;;22.59;41.96;100907.13;10443876;28;20052;-72
2023/08/21 13:31:07;;;;;;;3.25;2.33;;;;;;;22.41;42.46;100906.63;10472481;28;20531;-71
2023/08/21 13:36:09;;;;;;;2.47;1.88;;;;;;;22.30;42.61;100901.88;10424939;28;20538;-71
2023/08/21 13:41:11;;;;;;;2.50;1.98;;;;;;;22.43;41.81;100893.09;10440560;28;20046;-72
2023/08/21 13:46:15;;;;;;;2.65;2.13;;;;;;;22.56;41.45;100885.44;10436865;28;20056;-71
2023/08/21 13:51:17;;;;;;;2.83;2.17;;;;;;;22.47;41.50;100873.59;10436266;28;20049;-71
2023/08/21 13:56:24;;;;;;;2.22;1.63;;;;;;;22.43;40.58;100875.50;10435685;28;20042;-72
2023/08/21 14:01:27;;;;;;;3.05;2.08;;;;;;;22.34;41.21;100870.03;10440582;28;20061;-74
2023/08/21 14:06:29;;;;;;;2.92;1.83;;;;;;;22.33;40.24;100868.41;10440800;28;20494;-72
2023/08/21 14:11:31;;;;;;;3.75;1.80;;;;;;;22.35;40.34;100854.06;10441605;28;20065;-72
2023/08/21 14:16:34;;;;;;;2.92;2.20;;;;;;;22.39;40.84;100853.03;10445813;28;20402;-69
2023/08/21 14:21:36;;;;;;;2.67;2.03;;;;;;;22.20;40.74;100848.06;10446625;28;20052;-71
2023/08/21 14:26:39;;;;;;;3.05;1.90;;;;;;;22.21;41.06;100841.31;10441781;28;20068;-69
2023/08/21 14:31:42;;;;;;;2.58;2.00;;;;;;;22.18;41.96;100830.03;10431266;28;20054;-71
2023/08/21 14:36:44;;;;;;;2.58;1.90;;;;;;;22.35;41.30;100834.50;10450153;28;20056;-71
2023/08/21 14:41:47;;;;;;;4.60;2.42;;;;;;;22.41;42.38;100825.53;10440948;28;20042;-73
2023/08/21 14:46:55;;;;;;;5.07;2.17;;;;;;;22.30;41.26;100815.19;10435475;28;20128;-73
2023/08/21 14:52:03;;;;;;;2.38;2.10;;;;;;;22.23;42.06;100815.81;10436778;28;20045;-71
2023/08/21 14:57:05;;;;;;;2.65;1.95;;;;;;;22.09;41.83;100815.41;10439734;28;20419;-73
2023/08/21 15:02:07;;;;;;;3.47;2.00;;;;;;;22.10;42.31;100806.66;10434946;28;20037;-74
2023/08/21 15:07:10;;;;;;;5.88;2.10;;;;;;;22.18;42.18;100810.47;10440393;28;20052;-71
2023/08/21 15:12:12;;;;;;;3.70;1.95;;;;;;;22.25;41.99;100807.88;10435336;28;20479;-75
2023/08/21 15:17:15;;;;;;;2.83;2.20;;;;;;;22.20;42.49;100811.72;10426783;28;20045;-73
2023/08/21 15:22:18;;;;;;;3.15;1.80;;;;;;;22.20;41.97;100814.53;10441416;28;20054;-72
2023/08/21 15:27:23;;;;;;;2.83;1.85;;;;;;;22.13;42.14;100813.50;10436138;28;20052;-73
2023/08/21 15:32:25;;;;;;;2.42;1.40;;;;;;;22.13;42.29;100794.75;10440590;28;20037;-70
2023/08/21 15:37:27;;;;;;;2.80;1.80;;;;;;;22.08;43.10;100799.81;10448409;28;20053;-70
2023/08/21 15:42:31;;;;;;;2.90;1.70;;;;;;;22.01;43.35;100793.94;10447829;28;20432;-72
2023/08/21 15:47:34;;;;;;;2.25;1.95;;;;;;;21.96;42.54;100792.22;10445140;28;20061;-72
2023/08/21 15:52:37;;;;;;;3.58;2.40;;;;;;;21.80;43.25;100786.56;10446838;28;20076;-71
2023/08/21 15:57:41;;;;;;;7.18;2.00;;;;;;;21.72;43.14;100779.16;10445143;28;20419;-71
2023/08/21 16:02:43;;;;;;;3.97;2.42;;;;;;;21.70;43.19;100770.31;10446178;28;20049;-70
2023/08/21 16:07:45;;;;;;;2.53;1.65;;;;;;;21.55;43.44;100768.25;10439379;28;20037;-70
2023/08/21 16:12:48;;;;;;;2.72;1.70;;;;;;;21.50;43.85;100763.72;10444658;28;20057;-69
2023/08/21 16:17:50;;;;;;;4.10;1.83;;;;;;;21.57;43.92;100763.13;10442059;28;20049;-69
2023/08/21 16:22:53;;;;;;;4.50;2.00;;;;;;;21.58;43.41;100765.56;10445458;28;20053;-70
2023/08/21 16:27:56;;;;;;;5.13;2.00;;;;;;;21.61;44.05;100761.25;10438671;28;20041;-71
2023/08/21 16:32:58;;;;;;;2.92;1.60;;;;;;;21.58;43.70;100765.56;10442204;28;20642;-75
2023/08/21 16:38:00;;;;;;;3.25;1.60;;;;;;;21.50;44.16;100760.09;10421490;28;20049;-77
2023/08/21 16:43:03;;;;;;;3.17;1.88;;;;;;;21.41;44.65;100762.22;10442226;28;20042;-86
2023/08/21 16:48:05;;;;;;;3.97;1.98;;;;;;;21.32;44.39;100751.19;10438843;28;20033;-88
2023/08/21 16:53:07;;;;;;;5.30;1.80;;;;;;;21.14;45.03;100761.75;10442329;28;20037;-86
2023/08/21 16:58:10;;;;;;;4.20;2.05;;;;;;;20.97;46.43;100762.78;10441853;28;20056;-85
2023/08/21 17:03:12;;;;;;;9.90;3.20;;;;;;;20.93;46.61;100756.28;10436227;28;20060;-75
2023/08/21 17:08:15;;;;;;;6.57;2.40;;;;;;;20.82;47.36;100751.50;10440661;28;20045;-76
2023/08/21 17:13:17;;;;;;;9.70;2.38;;;;;;;20.74;48.43;100754.06;10442915;28;20041;-77
2023/08/21 17:18:19;;;;;;;8.52;2.70;;;;;;;20.64;48.76;100750.91;10441590;28;20045;-78
2023/08/21 17:23:22;;;;;;;5.75;2.28;;;;;;;20.59;49.34;100754.72;10441943;28;20061;-85
2023/08/21 17:28:25;;;;;;;6.28;2.88;;;;;;;20.50;49.39;100756.81;10433951;28;20049;-82
2023/08/21 17:33:29;;;;;;;4.00;2.47;;;;;;;20.47;50.85;100757.50;10440104;28;20064;-79
2023/08/21 17:38:32;;;;;;;6.05;2.60;;;;;;;20.32;52.72;100756.16;10442951;28;20074;-74
2023/08/21 17:43:34;;;;;;;4.05;2.40;;;;;;;20.22;54.01;100741.84;10441918;28;20065;-75
2023/08/21 17:48:36;;;;;;;8.85;2.40;;;;;;;20.07;55.26;100740.50;10435579;28;20044;-69
2023/08/21 17:53:39;;;;;;;8.20;3.17;;;;;;;20.03;56.29;100734.81;10431601;28;20057;-73
2023/08/21 17:58:41;;;;;;;7.30;2.92;;;;;;;20.01;56.39;100734.34;10435550;28;20037;-77
2023/08/21 18:03:44;;;;;;;6.63;2.67;;;;;;;19.90;57.36;100723.97;10433295;28;20400;-78
2023/08/21 18:08:46;;;;;;;3.58;2.40;;;;;;;19.70;58.23;100711.69;10438748;28;20512;-77
2023/08/21 18:13:48;;;;;;;7.30;3.00;;;;;;;19.57;59.54;100713.59;10438887;28;20148;-74
2023/08/21 18:18:51;;;;;;;6.40;2.75;;;;;;;19.47;60.32;100714.00;10433623;28;20050;-75
2023/08/21 18:23:53;;;;;;;3.20;2.60;;;;;;;19.36;61.23;100708.00;10436231;28;20057;-76
2023/08/21 18:28:55;;;;;;;5.97;2.97;;;;;;;19.25;61.90;100709.53;10435294;28;20037;-77
2023/08/21 18:33:57;;;;;;;5.07;2.78;;;;;;;19.16;62.69;100703.25;10437165;28;20563;-78
2023/08/21 18:39:00;;;;;;;7.88;2.42;;;;;;;19.06;62.70;100698.88;10440683;28;20408;-76
2023/08/21 18:44:03;;;;;;;5.75;2.40;;;;;;;18.92;63.40;100698.31;10435951;28;20053;-78
2023/08/21 18:49:05;;;;;;;7.10;2.63;;;;;;;18.59;65.12;100698.13;10441750;28;20057;-79
2023/08/21 18:54:07;;;;;;;6.88;2.50;;;;;;;18.47;65.61;100679.38;10421045;28;20500;-72
2023/08/21 18:59:09;;;;;;;4.75;2.15;;;;;;;18.49;65.60;100684.59;10433310;28;20561;-80
2023/08/21 19:04:12;;;;;;;6.32;2.10;;;;;;;18.46;65.98;100679.72;10436718;28;20037;-72
2023/08/21 19:09:14;;;;;;;3.33;1.98;;;;;;;18.32;66.23;100680.72;10448833;28;20046;-70
2023/08/21 19:14:16;;;;;;;5.13;2.22;;;;;;;18.22;67.23;100674.72;10446333;28;20045;-70
2023/08/21 19:19:19;;;;;;;3.38;2.80;;;;;;;18.22;66.82;100666.38;10454800;28;20046;-71
2023/08/21 19:24:21;;;;;;;5.93;2.40;;;;;;;18.14;67.58;100681.13;10431211;28;20045;-71
2023/08/21 19:29:23;;;;;;;4.47;2.53;;;;;;;18.30;67.46;100671.91;10447092;28;20053;-71
2023/08/21 19:34:26;;;;;;;4.80;2.80;;;;;;;18.26;67.55;100670.13;10444930;28;20038;-71
2023/08/21 19:39:31;;;;;;;3.33;2.22;;;;;;;18.19;68.84;100662.31;10434020;28;20058;-71
2023/08/21 19:44:33;;;;;;;5.30;2.20;;;;;;;17.94;70.49;100654.88;10439121;28;20041;-70
2023/08/21 19:49:36;;;;;;;5.13;2.20;;;;;;;17.80;71.29;100657.84;10443396;28;20037;-76
2023/08/21 19:54:39;;;;;;;3.38;2.33;;;;;;;17.77;71.35;100659.31;10445630;28;20551;-75
2023/08/21 19:59:41;;;;;;;2.63;2.03;;;;;;;17.88;71.41;100656.19;10447127;28;22784;-75
2023/08/21 20:04:44;;;;;;;3.97;2.60;;;;;;;17.89;71.95;100658.66;10454821;28;20609;-75
2023/08/21 20:09:46;;;;;;;3.47;1.98;;;;;;;17.74;72.07;100653.59;10437008;28;20041;-75
2023/08/21 20:14:51;;;;;;;4.53;2.40;;;;;;;17.72;72.56;100637.28;10440562;28;20041;-75
2023/08/21 20:19:54;;;;;;;3.13;2.35;;;;;;;17.84;72.25;100642.13;10403833;28;20057;-75
2023/08/21 20:24:57;;;;;;;4.70;2.70;;;;;;;17.81;72.96;100642.00;10426962;28;20429;-74
2023/08/21 20:29:59;;;;;;;4.43;2.47;;;;;;;17.78;73.23;100635.16;10443709;28;20409;-73
2023/08/21 20:35:07;;;;;;;9.73;3.35;;;;;;;17.70;73.32;100636.81;10445419;28;20084;-83
2023/08/21 20:40:10;;;;;;;6.13;2.85;;;;;;;17.50;74.10;100637.41;10441909;28;20074;-85
2023/08/21 20:45:13;;;;;;;10.20;3.13;;;;;;;17.48;74.14;100639.72;10440548;28;20271;-84
2023/08/21 20:50:15;;;;;;;6.43;3.45;;;;;;;17.47;74.92;100629.75;10445291;28;20045;-85
2023/08/21 20:55:18;;;;;;;6.15;3.28;;;;;;;17.40;74.79;100627.50;10433121;28;20072;-78
2023/08/21 21:00:20;;;;;;;7.57;3.15;;;;;;;17.44;74.40;100636.78;10435786;28;20136;-88
2023/08/21 21:05:23;;;;;;;8.38;3.55;;;;;;;17.23;74.78;100633.03;10431537;28;20384;-84
2023/08/21 21:10:25;;;;;;;8.10;3.60;;;;;;;17.24;75.00;100623.56;10439866;28;20045;-79
2023/08/21 21:15:29;;;;;;;6.53;3.28;;;;;;;17.37;74.34;100621.78;10443654;28;20500;-90
2023/08/21 21:20:31;;;;;;;6.78;3.15;;;;;;;17.56;72.72;100619.47;10428342;28;20057;-81
2023/08/21 21:25:33;;;;;;;7.07;4.07;;;;;;;17.80;71.71;100620.94;10438209;28;20052;-83
2023/08/21 21:30:35;;;;;;;8.27;4.43;;;;;;;17.93;70.42;100622.69;10435079;28;20037;-73
2023/08/21 21:35:38;;;;;;;9.90;4.25;;;;;;;17.96;69.60;100610.94;10440090;28;20048;-70
2023/08/21 21:40:41;;;;;;;5.32;3.30;;;;;;;18.06;69.46;100610.59;10451470;28;20060;-73
2023/08/21 21:45:43;;;;;;;7.00;3.72;;;;;;;18.12;68.37;100612.03;10432326;28;20060;-73
2023/08/21 21:50:46;;;;;;;10.60;4.30;;;;;;;18.15;68.01;100607.75;10441591;28;20037;-73
2023/08/21 21:55:48;;;;;;;9.30;4.93;;;;;;;18.18;68.04;100604.31;10441227;28;20191;-72
2023/08/21 22:00:50;;;;;;;9.80;5.10;;;;;;;18.22;67.84;100608.88;10434070;28;20057;-72
2023/08/21 22:05:55;;;;;;;10.55;4.85;;;;;;;18.29;66.95;100598.06;10423149;28;20068;-71
2023/08/21 22:10:57;;;;;;;8.75;4.07;;;;;;;18.38;66.38;100593.25;10440222;28;20041;-71
2023/08/21 22:16:00;;;;;;;13.50;4.53;;;;;;;18.32;66.92;100591.84;10441509;28;20061;-73
2023/08/21 22:21:07;;;;;;;8.57;4.25;;;;;;;18.37;66.96;100593.59;10440829;28;20038;-72
2023/08/21 22:26:09;;;;;;;9.70;4.57;;;;;;;18.42;66.34;100584.28;10437760;28;20056;-73
2023/08/21 22:31:12;;;;;;;7.88;4.05;;;;;;;18.41;66.00;100583.47;10438634;28;20033;-72
2023/08/21 22:36:14;;;;;;;10.57;4.40;;;;;;;18.45;66.18;100580.81;10448335;28;20045;-72
2023/08/21 22:41:17;;;;;;;9.70;4.00;;;;;;;18.41;65.84;100577.91;10451717;28;20037;-72
2023/08/21 22:46:19;;;;;;;7.15;3.88;;;;;;;18.46;65.87;100579.69;10447577;28;20143;-72
2023/08/21 22:51:21;;;;;;;7.28;4.10;;;;;;;18.52;65.77;100569.97;10431615;28;20056;-73
2023/08/21 22:56:24;;;;;;;6.50;3.55;;;;;;;18.54;65.79;100564.91;10431175;28;20049;-72
2023/08/21 23:01:26;;;;;;;7.30;3.53;;;;;;;18.49;65.36;100560.34;10439596;28;20061;-72
2023/08/21 23:06:28;;;;;;;5.45;3.90;;;;;;;18.54;65.93;100542.66;10464026;28;20033;-72
2023/08/21 23:11:31;;;;;;;6.13;3.53;;;;;;;18.54;65.88;100542.66;10449876;28;20041;-72